KHWO/HWO METAR and TAF weather

Enter ICAO airport designator
Station Type Date Time Source
KHWO METAR 2020/09/25 19:53 UTC NOAA

KHWO 251953Z 00000KT 10SM FEW031 29/26 A2996 RMK AO2 LTG DSNT SW AND NW SLP145 T02890261 $


Station Type Date Time Source
KHWO Decoded METAR 2020/09/25 19:53 UTC NOAA

HOLLYWOOD NORTH PERRY AIRPORT , FL, United States (KHWO) 26-00N 080-14W 2M
Sep 25, 2020 - 03:53 PM EDT / 2020.09.25 1953 UTC
Wind: Calm:0
Visibility: 10 mile(s):0
Sky conditions: mostly clear
Weather: Lightning observed
Temperature: 84.0 F (28.9 C)
Dew Point: 79.0 F (26.1 C)
Relative Humidity: 84%
Pressure (altimeter): 29.96 in. Hg (1014 hPa)
ob: KHWO 251953Z 00000KT 10SM FEW031 29/26 A2996 RMK AO2 LTG DSNT SW AND NW SLP145 T02890261
cycle: 20

Station Type Date Time Source
KHWO TAF 2020/02/03 18:20 UTC NOAA

TAF KHWO 031720Z 0318/0418 12005KT P6SM SKC
FM040000 VRB03KT P6SM SKC
FM041500 14010KT P6SM FEW030

Example: see airport list